Time;durP1;ratioP1;P1;durP2;ratioP2;P2;SDS_P1;SDS_P2;PMS_P1;PMS_P2;Temp;Humidity;BMP_temperature;BMP_pressure;BME280_temperature;BME280_humidity;BME280_pressure;Samples;Min_cycle;Max_cycle;Signal;HPM_P1;HPM_P2
2022/02/17 00:00:40;;;;;;;33.00;4.97;;;;;;;-142.75;100.00;75655.06;5032910;28;20130;-73
2022/02/17 00:03:05;;;;;;;26.95;3.92;;;;;;;-142.75;100.00;75660.97;5033966;28;20510;-72
2022/02/17 00:05:30;;;;;;;28.17;4.15;;;;;;;-142.75;100.00;75662.94;5033846;28;20014;-73
2022/02/17 00:07:56;;;;;;;32.45;4.78;;;;;;;-142.75;100.00;75657.03;5033632;28;20422;-73
2022/02/17 00:10:23;;;;;;;28.27;4.82;;;;;;;-142.75;100.00;75684.56;5034049;28;20537;-73
2022/02/17 00:12:49;;;;;;;23.63;4.68;;;;;;;-142.75;100.00;75672.78;5033787;28;20024;-73
2022/02/17 00:15:15;;;;;;;28.38;4.30;;;;;;;-142.75;100.00;75684.56;5033807;28;20021;-73
2022/02/17 00:17:41;;;;;;;22.83;3.45;;;;;;;-142.75;100.00;75676.69;5030882;28;20026;-73
2022/02/17 00:20:08;;;;;;;24.48;4.45;;;;;;;-142.75;100.00;75682.59;5033504;28;20039;-72
2022/02/17 00:22:33;;;;;;;25.67;4.30;;;;;;;-142.75;100.00;75676.69;5033698;28;20017;-73
2022/02/17 00:24:58;;;;;;;22.88;4.25;;;;;;;-142.75;100.00;75672.78;5033610;28;20017;-73
2022/02/17 00:27:24;;;;;;;29.65;4.15;;;;;;;-142.75;100.00;75670.81;5032237;28;20447;-72
2022/02/17 00:29:49;;;;;;;22.50;4.32;;;;;;;-142.75;100.00;75659.00;5032486;28;20029;-71
2022/02/17 00:32:14;;;;;;;32.23;4.30;;;;;;;-142.75;100.00;75660.97;5033539;28;20033;-72
2022/02/17 00:34:39;;;;;;;23.35;4.00;;;;;;;-142.75;100.00;75688.50;5033327;28;20276;-72
2022/02/17 00:37:05;;;;;;;31.05;4.60;;;;;;;-142.75;100.00;75700.31;5033521;28;20028;-71
2022/02/17 00:39:31;;;;;;;28.58;4.53;;;;;;;-142.75;100.00;75708.19;5031835;28;20021;-72
2022/02/17 00:41:57;;;;;;;26.85;4.30;;;;;;;-142.75;100.00;75731.81;5029659;28;20072;-72
2022/02/17 00:44:22;;;;;;;21.92;5.13;;;;;;;-142.75;100.00;75737.72;5033108;28;20474;-72
2022/02/17 00:46:48;;;;;;;23.60;3.97;;;;;;;-142.75;100.00;75743.63;5033288;28;20107;-73
2022/02/17 00:49:14;;;;;;;30.95;5.05;;;;;;;-142.75;100.00;75761.34;5032795;28;20021;-72
2022/02/17 00:51:39;;;;;;;26.75;3.88;;;;;;;-142.75;100.00;75759.38;5033248;28;20029;-72
2022/02/17 00:54:04;;;;;;;34.72;4.95;;;;;;;-142.75;100.00;75763.28;5033196;28;20425;-75
2022/02/17 00:56:30;;;;;;;33.95;5.88;;;;;;;-142.75;100.00;75779.03;5032981;28;20030;-73
2022/02/17 00:58:55;;;;;;;34.95;6.50;;;;;;;-142.75;100.00;75794.78;5032847;28;20072;-72
2022/02/17 01:01:21;;;;;;;35.90;5.40;;;;;;;-142.75;100.00;75786.91;5032963;28;20509;-73
2022/02/17 01:03:46;;;;;;;37.60;6.30;;;;;;;-142.75;100.00;75796.75;5032847;28;20033;-72
2022/02/17 01:06:11;;;;;;;33.13;6.47;;;;;;;-142.75;100.00;75822.34;5032837;28;20029;-72
2022/02/17 01:08:36;;;;;;;28.60;4.53;;;;;;;-142.75;100.00;75830.22;5032653;28;20272;-72
2022/02/17 01:11:02;;;;;;;33.13;5.28;;;;;;;-142.75;100.00;75847.94;5032817;28;20280;-73
2022/02/17 01:13:27;;;;;;;22.45;3.72;;;;;;;-142.75;100.00;75838.09;5032752;28;20479;-72
2022/02/17 01:15:53;;;;;;;29.92;4.22;;;;;;;-142.75;100.00;75847.94;5032729;28;20036;-72
2022/02/17 01:18:18;;;;;;;26.52;4.25;;;;;;;-142.75;100.00;75863.66;5032276;28;20103;-72
2022/02/17 01:20:46;;;;;;;24.98;4.20;;;;;;;-142.75;100.00;75853.84;5032600;28;20029;-72
2022/02/17 01:23:12;;;;;;;22.35;3.83;;;;;;;-142.75;100.00;75867.59;5032578;28;20112;-72
2022/02/17 01:25:37;;;;;;;26.55;4.47;;;;;;;-142.75;100.00;75867.59;5032371;28;20132;-72
2022/02/17 01:28:02;;;;;;;36.38;5.55;;;;;;;-142.75;100.00;75865.63;5031391;28;20051;-72
2022/02/17 01:30:28;;;;;;;27.13;3.50;;;;;;;-142.75;100.00;75881.38;5032531;28;20028;-72
2022/02/17 01:32:53;;;;;;;27.38;4.00;;;;;;;-142.75;100.00;75893.19;5029989;28;20040;-72
2022/02/17 01:35:19;;;;;;;21.73;3.67;;;;;;;-142.75;100.00;75893.19;5030997;28;20067;-72
2022/02/17 01:37:46;;;;;;;;;;;;;;;-142.75;100.00;75901.06;5032774;28;20094;-72
2022/02/17 01:40:12;;;;;;;25.15;4.68;;;;;;;-142.75;100.00;75891.22;5029498;28;20328;-72
2022/02/17 01:42:37;;;;;;;28.02;4.55;;;;;;;-142.75;100.00;75908.94;5032183;28;20033;-72
2022/02/17 01:45:06;;;;;;;27.00;4.05;;;;;;;-142.75;100.00;75901.06;5031952;28;20029;-72
2022/02/17 01:47:31;;;;;;;25.35;3.65;;;;;;;-142.75;100.00;75889.25;5031899;28;20035;-72
2022/02/17 01:49:57;;;;;;;36.65;4.22;;;;;;;-142.75;100.00;75910.91;5031924;28;20021;-72
2022/02/17 01:52:23;;;;;;;23.77;4.22;;;;;;;-142.75;100.00;75916.81;5030734;28;20118;-72
2022/02/17 01:54:48;;;;;;;;;;;;;;;-142.75;100.00;75932.56;5032380;28;20014;-72
2022/02/17 01:57:16;;;;;;;23.08;2.85;;;;;;;-142.75;100.00;75924.69;5031889;28;19920;-72
2022/02/17 01:59:45;;;;;;;16.88;3.42;;;;;;;-142.75;100.00;75928.63;5031627;28;20053;-72
2022/02/17 02:02:11;;;;;;;19.95;5.07;;;;;;;-142.75;100.00;75920.75;5031773;28;20033;-72
2022/02/17 02:04:37;;;;;;;16.67;3.20;;;;;;;-142.75;100.00;75916.81;5031681;28;20096;-72
2022/02/17 02:07:04;;;;;;;19.58;2.67;;;;;;;-142.75;100.00;75940.44;5031799;28;20029;-72
2022/02/17 02:09:30;;;;;;;22.52;4.57;;;;;;;-142.75;100.00;75948.31;5031383;28;20044;-72
2022/02/17 02:11:57;;;;;;;19.10;3.40;;;;;;;-142.75;100.00;75948.31;5031722;28;20017;-71
2022/02/17 02:14:22;;;;;;;;;;;;;;;-142.75;100.00;75954.22;5031774;28;20088;-71
2022/02/17 02:16:47;;;;;;;31.20;3.95;;;;;;;-142.75;100.00;75966.00;5031588;28;19917;-72
2022/02/17 02:19:12;;;;;;;21.83;4.82;;;;;;;-142.75;100.00;75973.88;5030050;28;20029;-72
2022/02/17 02:21:38;;;;;;;24.35;4.53;;;;;;;-142.75;100.00;75981.75;5031475;28;20059;-72
2022/02/17 02:24:04;;;;;;;31.60;4.68;;;;;;;-142.75;100.00;75991.59;5031411;28;20087;-71
2022/02/17 02:26:29;;;;;;;;;;;;;;;-142.75;100.00;75981.75;5031791;28;20395;-71
2022/02/17 02:28:55;;;;;;;23.25;3.42;;;;;;;-142.75;100.00;75983.72;5031102;28;19913;-72
2022/02/17 02:31:21;;;;;;;25.67;3.63;;;;;;;-142.75;100.00;75991.59;5030021;28;20072;-72
2022/02/17 02:33:47;;;;;;;24.13;3.42;;;;;;;-142.75;100.00;76017.19;5030325;28;20450;-72
2022/02/17 02:36:13;;;;;;;23.77;3.85;;;;;;;-142.75;100.00;76027.03;5031253;28;20117;-71
2022/02/17 02:38:38;;;;;;;23.42;3.55;;;;;;;-142.75;100.00;76011.28;5030989;28;20072;-72
2022/02/17 02:41:04;;;;;;;20.20;3.53;;;;;;;-142.75;100.00;76030.97;5031185;28;20030;-72
2022/02/17 02:43:29;;;;;;;19.95;2.88;;;;;;;-142.75;100.00;76048.69;5031003;28;20049;-72
2022/02/17 02:45:54;;;;;;;28.95;4.63;;;;;;;-142.75;100.00;76054.59;5031047;28;20109;-72
2022/02/17 02:48:20;;;;;;;23.90;4.40;;;;;;;-142.75;100.00;76064.44;5030790;28;20028;-72
2022/02/17 02:50:45;;;;;;;26.85;3.72;;;;;;;-142.75;100.00;76074.25;5031129;28;20032;-71
2022/02/17 02:53:18;;;;;;;30.38;3.55;;;;;;;-142.75;100.00;76060.50;5029301;28;20554;-72
2022/02/17 02:55:45;;;;;;;21.20;4.93;;;;;;;-142.75;100.00;76090.00;5031003;28;20021;-72
2022/02/17 02:58:12;;;;;;;24.40;3.60;;;;;;;-142.75;100.00;76082.13;5030540;28;20033;-74
2022/02/17 03:00:39;;;;;;;24.63;3.75;;;;;;;-142.75;100.00;76097.88;5029663;28;20483;-72
2022/02/17 03:03:04;;;;;;;26.40;3.78;;;;;;;-142.75;100.00;76105.75;5030862;28;20486;-71
2022/02/17 03:05:30;;;;;;;23.17;3.78;;;;;;;-142.75;100.00;76119.53;5030741;28;20064;-72
2022/02/17 03:07:55;;;;;;;31.33;4.72;;;;;;;-142.75;100.00;76133.31;5030541;28;20572;-72
2022/02/17 03:10:21;;;;;;;27.50;3.55;;;;;;;-142.75;100.00;76141.19;5030749;28;20028;-72
2022/02/17 03:12:47;;;;;;;29.08;4.65;;;;;;;-142.75;100.00;76145.13;5030721;28;20029;-72
2022/02/17 03:15:12;;;;;;;26.50;4.72;;;;;;;-142.75;100.00;76125.44;5030689;28;20028;-72
2022/02/17 03:17:37;;;;;;;22.85;3.25;;;;;;;-142.75;100.00;76149.06;5030809;28;20037;-72
2022/02/17 03:20:07;;;;;;;20.33;4.32;;;;;;;-142.75;100.00;76149.06;5029136;28;20029;-72
2022/02/17 03:22:37;;;;;;;25.33;3.58;;;;;;;-142.75;100.00;76160.88;5030691;28;20395;-72
2022/02/17 03:25:04;;;;;;;26.95;4.63;;;;;;;-142.75;100.00;76158.91;5027902;28;20479;-72
2022/02/17 03:27:29;;;;;;;26.65;3.50;;;;;;;-142.75;100.00;76166.78;5030491;28;20037;-73
2022/02/17 03:29:54;;;;;;;16.55;3.13;;;;;;;-142.75;100.00;76160.88;5030362;28;20022;-71
2022/02/17 03:32:20;;;;;;;33.28;5.93;;;;;;;-142.75;100.00;76184.50;5030549;28;20029;-72
2022/02/17 03:34:46;;;;;;;28.05;4.32;;;;;;;-142.75;100.00;76176.63;5030521;28;20101;-72
2022/02/17 03:37:11;;;;;;;24.55;4.25;;;;;;;-142.75;100.00;76184.50;5029234;28;20029;-72
2022/02/17 03:39:37;;;;;;;32.70;4.10;;;;;;;-142.75;100.00;76178.59;5030331;28;20114;-72
2022/02/17 03:42:03;;;;;;;26.08;4.30;;;;;;;-142.75;100.00;76182.53;5030340;28;20036;-72
2022/02/17 03:44:28;;;;;;;26.40;4.15;;;;;;;-142.75;100.00;76200.25;5030226;28;20017;-72
2022/02/17 03:46:54;;;;;;;28.47;4.07;;;;;;;-142.75;100.00;76184.50;5050947;22;20107;-65
2022/02/17 03:49:19;;;;;;;27.10;4.70;;;;;;;-142.75;100.00;76192.38;5027130;28;20836;-65
2022/02/17 03:51:44;;;;;;;29.55;5.35;;;;;;;-142.75;100.00;76198.28;5029058;28;20029;-65
2022/02/17 03:54:10;;;;;;;33.58;4.68;;;;;;;-142.75;100.00;76184.50;5030427;28;20391;-65
2022/02/17 03:56:35;;;;;;;27.38;3.97;;;;;;;-142.75;100.00;76200.25;5030331;28;20391;-65
2022/02/17 03:59:00;;;;;;;26.40;4.20;;;;;;;-142.75;100.00;76206.13;5030022;28;20030;-65
2022/02/17 04:01:26;;;;;;;28.83;5.22;;;;;;;-142.75;100.00;76219.91;5030395;28;20025;-65
2022/02/17 04:03:51;;;;;;;29.90;4.88;;;;;;;-142.75;100.00;76229.75;5030098;28;20112;-65
2022/02/17 04:06:16;;;;;;;28.43;4.77;;;;;;;-142.75;100.00;76231.72;5032060;28;20051;-65
2022/02/17 04:08:42;;;;;;;26.73;5.47;;;;;;;-142.75;100.00;76247.47;5033790;28;20279;-65
2022/02/17 04:11:07;;;;;;;29.65;4.50;;;;;;;-142.75;100.00;76239.59;5033907;28;20498;-66
2022/02/17 04:13:34;;;;;;;22.85;4.38;;;;;;;-142.75;100.00;76255.34;5033950;28;20036;-65
2022/02/17 04:15:59;;;;;;;38.28;5.40;;;;;;;-142.75;100.00;76271.09;5033817;28;20083;-65
2022/02/17 04:18:24;;;;;;;36.23;5.43;;;;;;;-142.75;100.00;76255.34;5033453;28;20029;-65
2022/02/17 04:20:49;;;;;;;38.37;5.50;;;;;;;-142.75;100.00;76267.16;5033742;28;20274;-65
2022/02/17 04:23:15;;;;;;;45.27;6.70;;;;;;;-142.75;100.00;76282.91;5033794;28;20697;-65
2022/02/17 04:25:40;;;;;;;43.28;6.32;;;;;;;-142.75;100.00;76290.78;5033597;28;20037;-65
2022/02/17 04:28:05;;;;;;;32.92;6.32;;;;;;;-142.75;100.00;76290.78;5033325;28;20026;-65
2022/02/17 04:30:31;;;;;;;41.50;6.20;;;;;;;-142.75;100.00;76294.72;5033665;28;20079;-65
2022/02/17 04:33:00;;;;;;;39.97;7.77;;;;;;;-142.75;100.00;76310.47;5033388;28;20049;-66
2022/02/17 04:35:25;;;;;;;39.28;6.10;;;;;;;-142.75;100.00;76324.25;5033338;28;20370;-66
2022/02/17 04:37:51;;;;;;;30.13;5.47;;;;;;;-142.75;100.00;76328.19;5033219;28;20113;-65
2022/02/17 04:40:16;;;;;;;39.30;5.88;;;;;;;-142.75;100.00;76322.28;5033434;28;20049;-66
2022/02/17 04:42:41;;;;;;;31.35;5.40;;;;;;;-142.75;100.00;76322.28;5033320;28;20044;-65
2022/02/17 04:45:07;;;;;;;33.67;5.23;;;;;;;-142.75;100.00;76310.47;5033153;28;20024;-66
2022/02/17 04:47:33;;;;;;;34.45;5.40;;;;;;;-142.75;100.00;76334.09;5033194;28;20688;-65
2022/02/17 04:49:59;;;;;;;36.63;6.38;;;;;;;-142.75;100.00;76334.09;5033018;28;20017;-66
2022/02/17 04:52:24;;;;;;;30.25;5.40;;;;;;;-142.75;100.00;76332.13;5033242;28;20398;-65
2022/02/17 04:54:49;;;;;;;35.78;4.85;;;;;;;-142.75;100.00;76330.16;5033116;28;20076;-65
2022/02/17 04:57:15;;;;;;;36.35;5.68;;;;;;;-142.75;100.00;76328.19;5033139;28;20075;-66
2022/02/17 04:59:40;;;;;;;30.13;5.75;;;;;;;-142.75;100.00;76324.25;5032378;28;20036;-66
2022/02/17 05:02:06;;;;;;;34.25;5.25;;;;;;;-142.75;100.00;76341.97;5033097;28;20487;-66
2022/02/17 05:04:31;;;;;;;36.20;6.22;;;;;;;-142.75;100.00;76341.97;5032838;28;20254;-66
2022/02/17 05:06:56;;;;;;;33.95;5.28;;;;;;;-142.75;100.00;76351.81;5032902;28;20057;-66
2022/02/17 05:09:21;;;;;;;31.77;5.30;;;;;;;-142.75;100.00;76355.72;5032438;28;20029;-65
2022/02/17 05:11:47;;;;;;;34.57;5.40;;;;;;;-142.75;100.00;76357.69;5032773;28;20322;-66
2022/02/17 05:14:12;;;;;;;32.22;5.47;;;;;;;-142.75;100.00;76355.72;5033276;28;20299;-65
2022/02/17 05:16:37;;;;;;;30.67;4.97;;;;;;;-142.75;100.00;76369.50;5031155;28;20032;-66
2022/02/17 05:19:03;;;;;;;32.05;6.20;;;;;;;-142.75;100.00;76363.59;5032806;28;20025;-65
2022/02/17 05:21:29;;;;;;;33.10;5.03;;;;;;;-142.75;100.00;76377.38;5032543;28;20510;-66
2022/02/17 05:23:54;;;;;;;40.13;5.70;;;;;;;-142.75;100.00;76373.44;5032588;28;20030;-66
2022/02/17 05:26:20;;;;;;;36.50;5.30;;;;;;;-142.75;100.00;76375.41;5032377;28;20360;-66
2022/02/17 05:28:45;;;;;;;;;;;;;;;-142.75;100.00;76389.19;5032701;28;20022;-66
2022/02/17 05:31:11;;;;;;;37.30;5.95;;;;;;;-142.75;100.00;76399.03;5032470;28;19943;-66
2022/02/17 05:33:36;;;;;;;36.30;5.72;;;;;;;-142.75;100.00;76406.91;5032511;28;20064;-65
2022/02/17 05:36:01;;;;;;;26.33;5.18;;;;;;;-142.75;100.00;76416.75;5032902;28;20029;-65
2022/02/17 05:38:27;;;;;;;27.70;3.70;;;;;;;-142.75;100.00;76428.56;5030957;28;20479;-66
2022/02/17 05:40:52;;;;;;;26.88;4.20;;;;;;;-142.75;100.00;76436.44;5032187;28;20071;-66
2022/02/17 05:43:17;;;;;;;23.42;4.70;;;;;;;-142.75;100.00;76442.34;5032281;28;20410;-65
2022/02/17 05:45:43;;;;;;;27.02;4.78;;;;;;;-142.75;100.00;76448.25;5030673;28;20037;-66
2022/02/17 05:48:08;;;;;;;26.83;4.40;;;;;;;-142.75;100.00;76464.00;5030624;28;20042;-66
2022/02/17 05:50:34;;;;;;;36.08;5.80;;;;;;;-142.75;100.00;76465.97;5032019;28;20028;-65
2022/02/17 05:53:00;;;;;;;27.85;4.18;;;;;;;-142.75;100.00;76483.69;5030799;28;20029;-65
2022/02/17 05:55:26;;;;;;;28.58;4.72;;;;;;;-142.75;100.00;76479.75;5031697;28;20030;-66
2022/02/17 05:57:51;;;;;;;19.05;3.50;;;;;;;-142.75;100.00;76495.50;5031645;28;20025;-65
2022/02/17 06:00:17;;;;;;;24.25;3.70;;;;;;;-142.75;100.00;76513.22;5031900;28;20025;-66
2022/02/17 06:02:43;;;;;;;22.80;3.67;;;;;;;-142.75;100.00;76523.06;5031956;28;20033;-65
2022/02/17 06:05:10;;;;;;;19.60;3.10;;;;;;;-142.75;100.00;76523.06;5030333;28;20399;-65
2022/02/17 06:07:36;;;;;;;22.92;4.88;;;;;;;-142.75;100.00;76515.19;5031806;28;20030;-65
2022/02/17 06:10:01;;;;;;;17.75;2.70;;;;;;;-142.75;100.00;76515.19;5031410;28;20091;-65
2022/02/17 06:12:27;;;;;;;22.25;3.28;;;;;;;-142.75;100.00;76530.91;5031763;28;20104;-66
2022/02/17 06:14:52;;;;;;;27.20;3.37;;;;;;;-142.75;100.00;76546.66;5031529;28;20018;-67
2022/02/17 06:17:17;;;;;;;19.63;2.67;;;;;;;-142.75;100.00;76550.59;5030379;28;20287;-65
2022/02/17 06:19:43;;;;;;;18.92;3.08;;;;;;;-142.75;100.00;76550.59;5029925;28;20300;-65
2022/02/17 06:22:09;;;;;;;21.70;3.63;;;;;;;-142.75;100.00;76548.63;5030223;28;20430;-67
2022/02/17 06:24:35;;;;;;;12.60;2.60;;;;;;;-142.75;100.00;76570.28;5031411;28;20075;-66
2022/02/17 06:27:00;;;;;;;17.48;2.65;;;;;;;-142.75;100.00;76556.50;5031083;28;20116;-65
2022/02/17 06:29:26;;;;;;;19.48;3.55;;;;;;;-142.75;100.00;76572.25;5030868;28;20018;-66
2022/02/17 06:31:54;;;;;;;17.95;3.33;;;;;;;-142.75;100.00;76582.09;5031337;28;20399;-66
2022/02/17 06:34:20;;;;;;;14.33;3.13;;;;;;;-142.75;100.00;76578.16;5031242;28;20605;-66
2022/02/17 06:36:46;;;;;;;14.32;2.53;;;;;;;-142.75;100.00;76599.81;5031249;28;20029;-66
2022/02/17 06:39:12;;;;;;;10.48;2.35;;;;;;;-142.75;100.00;76597.84;5030799;28;20642;-66
2022/02/17 06:41:38;;;;;;;19.65;2.58;;;;;;;-142.75;100.00;76601.78;5031263;28;20108;-66
2022/02/17 06:44:03;;;;;;;21.58;3.00;;;;;;;-142.75;100.00;76607.69;5031421;28;20036;-66
2022/02/17 06:46:29;;;;;;;14.95;2.22;;;;;;;-142.75;100.00;76621.47;5031859;28;20029;-65
2022/02/17 06:48:54;;;;;;;13.52;2.78;;;;;;;-142.75;100.00;76629.34;5031412;28;20018;-65
2022/02/17 06:51:19;;;;;;;15.40;2.43;;;;;;;-142.75;100.00;76633.28;5031211;28;20026;-66
2022/02/17 06:53:44;;;;;;;12.80;2.57;;;;;;;-142.75;100.00;76647.06;5031012;28;20275;-66
2022/02/17 06:56:10;;;;;;;24.83;3.77;;;;;;;-142.75;100.00;76652.97;5027366;28;20287;-66
2022/02/17 06:58:35;;;;;;;16.63;2.35;;;;;;;-142.75;100.00;76662.81;5030728;28;20470;-66
2022/02/17 07:01:00;;;;;;;21.13;3.05;;;;;;;-142.75;100.00;76666.75;5031005;28;20021;-67
2022/02/17 07:03:26;;;;;;;17.38;3.17;;;;;;;-142.75;100.00;76672.66;5030767;28;20112;-65
2022/02/17 07:05:51;;;;;;;22.85;3.05;;;;;;;-142.75;100.00;76674.63;5030821;28;20254;-66
2022/02/17 07:08:17;;;;;;;18.95;3.42;;;;;;;-142.75;100.00;76698.25;5030434;28;20070;-66
2022/02/17 07:10:55;;;;;;;21.63;3.40;;;;;;;-142.75;100.00;76704.16;5030934;28;20108;-64
2022/02/17 07:13:21;;;;;;;22.33;2.83;;;;;;;-142.75;100.00;76700.22;5030939;28;20029;-65
2022/02/17 07:15:48;;;;;;;15.87;2.80;;;;;;;-142.75;100.00;76714.00;5029459;28;20052;-66
2022/02/17 07:18:15;;;;;;;14.90;2.30;;;;;;;-142.75;100.00;76717.94;5030409;28;20068;-67
2022/02/17 07:20:43;;;;;;;12.00;2.17;;;;;;;-142.75;100.00;76719.91;5030562;28;20534;-67
2022/02/17 07:23:14;;;;;;;17.97;2.50;;;;;;;-142.75;100.00;76723.84;5026763;28;20033;-67
2022/02/17 07:25:39;;;;;;;13.57;2.30;;;;;;;-142.75;100.00;76731.72;5018181;28;20034;-67
2022/02/17 07:28:05;;;;;;;20.02;2.58;;;;;;;-142.75;100.00;76715.97;5029032;28;20034;-67
2022/02/17 07:30:31;;;;;;;15.93;2.10;;;;;;;-142.75;100.00;76706.13;5030195;28;20032;-66
2022/02/17 07:32:56;;;;;;;13.80;2.30;;;;;;;-142.75;100.00;76706.13;5030487;28;20132;-66
2022/02/17 07:35:21;;;;;;;11.25;2.15;;;;;;;-142.75;100.00;76704.16;5030430;28;20025;-66
2022/02/17 07:37:47;;;;;;;11.57;1.90;;;;;;;-142.75;100.00;76710.06;5030419;28;20502;-66
2022/02/17 07:40:15;;;;;;;19.20;2.70;;;;;;;-142.75;100.00;76686.44;5033507;28;20021;-66
2022/02/17 07:42:42;;;;;;;16.73;2.80;;;;;;;-142.75;100.00;76676.59;5034569;28;20091;-67
2022/02/17 07:45:09;;;;;;;11.85;2.72;;;;;;;-142.75;100.00;76668.72;5031949;28;20025;-67
2022/02/17 07:47:36;;;;;;;14.60;2.67;;;;;;;-142.75;100.00;76660.84;5034281;28;20017;-66
2022/02/17 07:50:01;;;;;;;17.52;2.78;;;;;;;-142.75;100.00;76692.34;5033986;28;20104;-67
2022/02/17 07:52:27;;;;;;;14.10;2.58;;;;;;;-142.75;100.00;76704.16;5034280;28;20610;-66
2022/02/17 07:54:53;;;;;;;16.13;2.60;;;;;;;-142.75;100.00;76727.78;5034224;28;20038;-66
2022/02/17 07:57:19;;;;;;;14.23;2.60;;;;;;;-142.75;100.00;76704.16;5034268;28;20112;-67
2022/02/17 07:59:45;;;;;;;9.50;2.10;;;;;;;-142.75;100.00;76696.28;5033894;28;20341;-66
2022/02/17 08:02:10;;;;;;;10.63;2.08;;;;;;;-142.75;100.00;76694.31;5032544;28;20079;-66
2022/02/17 08:04:35;;;;;;;19.40;2.60;;;;;;;-142.75;100.00;76680.53;5033996;28;20021;-65
2022/02/17 08:07:03;;;;;;;17.52;2.47;;;;;;;-142.75;100.00;76649.03;5034019;28;20124;-65
2022/02/17 08:09:28;;;;;;;11.40;1.90;;;;;;;-142.75;100.00;76637.22;5033814;28;20116;-66
2022/02/17 08:11:53;;;;;;;13.43;1.48;;;;;;;-142.75;100.00;76615.56;5034057;28;20122;-66
2022/02/17 08:14:19;;;;;;;7.80;1.50;;;;;;;-142.75;100.00;76603.75;5034039;28;20056;-67
2022/02/17 08:16:44;;;;;;;7.55;1.30;;;;;;;-142.75;100.00;76637.22;5033866;28;20029;-67
2022/02/17 08:19:09;;;;;;;11.35;2.45;;;;;;;-142.75;100.00;76607.69;5033459;28;20128;-67
2022/02/17 08:21:35;;;;;;;15.95;1.80;;;;;;;-142.75;100.00;76595.88;5033058;28;20033;-67
2022/02/17 08:24:01;;;;;;;13.75;1.98;;;;;;;-142.75;100.00;76617.53;5032695;28;20093;-67
2022/02/17 08:26:26;;;;;;;10.32;1.83;;;;;;;-142.75;100.00;76643.13;5032571;28;20057;-66
2022/02/17 08:28:57;;;;;;;15.18;2.40;;;;;;;-142.75;100.00;76651.00;5032524;28;20049;-66
2022/02/17 08:31:23;;;;;;;15.13;3.13;;;;;;;-142.75;100.00;76672.66;5032689;28;20033;-67
2022/02/17 08:33:48;;;;;;;18.52;2.60;;;;;;;-142.75;100.00;76688.41;5030976;28;20025;-67
2022/02/17 08:36:14;;;;;;;15.73;2.67;;;;;;;-142.75;100.00;76633.28;5032443;28;20104;-67
2022/02/17 08:38:39;;;;;;;15.35;2.50;;;;;;;-142.75;100.00;76615.56;5032178;28;20338;-66
2022/02/17 08:41:06;;;;;;;26.02;2.90;;;;;;;-142.75;100.00;76574.22;5031288;28;20426;-67
2022/02/17 08:43:32;;;;;;;15.13;2.35;;;;;;;-142.75;100.00;76544.69;5032575;28;20384;-66
2022/02/17 08:45:57;;;;;;;;;;;;;;;-142.75;100.00;76601.78;5032474;28;20026;-66
2022/02/17 08:48:22;;;;;;;18.80;2.25;;;;;;;-142.75;100.00;76625.41;5028595;28;19919;-67
2022/02/17 08:50:48;;;;;;;15.70;2.47;;;;;;;-142.75;100.00;76605.72;5031554;28;20025;-66
2022/02/17 08:53:13;;;;;;;10.77;2.58;;;;;;;-142.75;100.00;76597.84;5031172;28;20033;-66
2022/02/17 08:55:38;;;;;;;15.00;1.92;;;;;;;-142.75;100.00;76605.72;5032277;28;20025;-66
2022/02/17 08:58:04;;;;;;;12.13;2.10;;;;;;;-142.75;100.00;76591.94;5031958;28;20439;-67
2022/02/17 09:00:29;;;;;;;10.85;1.90;;;;;;;-142.75;100.00;76562.41;5031887;28;20057;-66
2022/02/17 09:02:55;;;;;;;14.40;2.33;;;;;;;-142.75;100.00;76550.59;5032124;28;20077;-66
2022/02/17 09:05:20;;;;;;;16.70;2.03;;;;;;;-142.75;100.00;76568.31;5031588;28;20452;-66
2022/02/17 09:07:46;;;;;;;13.82;2.90;;;;;;;-142.75;100.00;76576.19;5032093;28;20459;-67
2022/02/17 09:10:11;;;;;;;16.45;2.05;;;;;;;-142.75;100.00;76599.81;5031923;28;20026;-67
2022/02/17 09:12:37;;;;;;;16.85;2.70;;;;;;;-142.75;100.00;76621.47;5031955;28;20025;-67
2022/02/17 09:15:04;;;;;;;14.05;2.22;;;;;;;-142.75;100.00;76664.78;5031429;28;20036;-67
2022/02/17 09:17:29;;;;;;;16.15;2.30;;;;;;;-142.75;100.00;76605.72;5031845;28;20025;-67
2022/02/17 09:19:55;;;;;;;11.18;1.90;;;;;;;-142.75;100.00;76603.75;5031161;28;20026;-66
2022/02/17 09:22:21;;;;;;;9.90;1.90;;;;;;;-142.75;100.00;76617.53;5031432;28;20403;-67
2022/02/17 09:24:47;;;;;;;13.13;2.67;;;;;;;-142.75;100.00;76550.59;5031784;28;20124;-67
2022/02/17 09:27:12;;;;;;;13.25;2.05;;;;;;;-142.75;100.00;76525.03;5031606;28;20035;-67
2022/02/17 09:29:39;;;;;;;12.65;2.60;;;;;;;-142.75;100.00;76467.94;5031334;28;20116;-67
2022/02/17 09:32:05;;;;;;;9.25;1.75;;;;;;;-142.75;100.00;76505.34;5031516;28;20030;-66
2022/02/17 09:34:31;;;;;;;6.70;0.88;;;;;;;-142.75;100.00;76517.16;5029982;28;20483;-66
2022/02/17 09:36:56;;;;;;;6.13;1.17;;;;;;;-142.75;100.00;76515.19;5031393;28;20032;-67
2022/02/17 09:39:21;;;;;;;12.18;1.90;;;;;;;-142.75;100.00;76540.75;5031066;28;20125;-67
2022/02/17 09:41:48;;;;;;;13.13;1.90;;;;;;;-142.75;100.00;76530.91;5031201;28;20104;-68
2022/02/17 09:44:13;;;;;;;7.72;1.40;;;;;;;-142.75;100.00;76483.69;5030036;28;20034;-67
2022/02/17 09:46:44;;;;;;;14.23;1.70;;;;;;;-142.75;100.00;76460.06;5031131;28;20029;-68
2022/02/17 09:49:14;;;;;;;15.20;1.77;;;;;;;-142.75;100.00;76489.59;5030637;28;20495;-68
2022/02/17 09:51:39;;;;;;;11.13;2.05;;;;;;;-142.75;100.00;76483.69;5031011;28;20434;-67
2022/02/17 09:54:04;;;;;;;16.08;2.60;;;;;;;-142.75;100.00;76519.13;5029938;28;20032;-66
2022/02/17 09:56:30;;;;;;;11.00;1.77;;;;;;;-142.75;100.00;76426.59;5027675;28;20032;-67
2022/02/17 09:58:55;;;;;;;13.40;1.75;;;;;;;-142.75;100.00;76471.88;5020909;28;20030;-67
2022/02/17 10:01:27;;;;;;;13.80;1.90;;;;;;;-142.75;100.00;76530.91;5028925;28;20063;-67
2022/02/17 10:04:17;;;;;;;10.02;1.58;;;;;;;-142.75;100.00;76525.03;5026506;28;20514;-67
2022/02/17 10:06:49;;;;;;;8.45;1.73;;;;;;;-142.75;100.00;76523.06;5022717;28;20041;-67
2022/02/17 10:09:16;;;;;;;12.68;1.73;;;;;;;-142.75;100.00;76487.63;5030528;28;20108;-67
2022/02/17 10:11:43;;;;;;;13.95;2.03;;;;;;;-142.75;100.00;76483.69;5029519;28;20037;-68
2022/02/17 10:14:12;;;;;;;10.30;1.40;;;;;;;-142.75;100.00;76424.63;5030965;28;20411;-68
2022/02/17 10:16:53;;;;;;;12.35;1.67;;;;;;;-142.75;100.00;76412.81;5025552;28;20112;-68
2022/02/17 10:19:19;;;;;;;7.80;1.42;;;;;;;-142.75;100.00;76385.25;5028422;28;20037;-68
2022/02/17 10:21:44;;;;;;;;;;;;;;;-142.75;100.00;76402.97;5030589;28;20024;-68
2022/02/17 10:24:29;;;;;;;6.18;1.23;;;;;;;-142.75;100.00;76397.06;5030429;28;19921;-68
2022/02/17 10:27:04;;;;;;;9.07;1.45;;;;;;;-142.75;100.00;76340.00;5028131;28;20029;-68
2022/02/17 10:29:31;;;;;;;10.32;1.98;;;;;;;-142.75;100.00;76359.66;5029341;28;20395;-68
2022/02/17 10:32:09;;;;;;;8.68;1.40;;;;;;;-142.75;100.00;76330.16;5030097;28;20033;-68
2022/02/17 10:34:35;;;;;;;8.88;1.38;;;;;;;-142.75;100.00;76318.34;5028226;28;20017;-68
2022/02/17 10:37:00;;;;;;;10.70;2.20;;;;;;;-142.75;100.00;76277.00;5030122;28;20057;-68
2022/02/17 10:39:28;;;;;;;12.55;1.60;;;;;;;-142.75;100.00;76310.47;5030016;28;20048;-68
2022/02/17 10:41:57;;;;;;;14.80;2.25;;;;;;;-142.75;100.00;76334.09;5029814;28;20036;-68
2022/02/17 10:44:28;;;;;;;8.80;1.33;;;;;;;-142.75;100.00;76300.63;5029986;28;21520;-68
2022/02/17 10:46:53;;;;;;;11.32;1.50;;;;;;;-142.75;100.00;76284.88;5028696;28;21511;-68
2022/02/17 10:49:20;;;;;;;9.77;1.70;;;;;;;-142.75;100.00;76347.84;5029756;28;20096;-68
2022/02/17 10:51:47;;;;;;;12.02;2.80;;;;;;;-142.75;100.00;76371.47;5030001;28;20037;-68
2022/02/17 10:54:19;;;;;;;7.88;1.70;;;;;;;-142.75;100.00;76383.28;5030171;28;20449;-67
2022/02/17 10:56:44;;;;;;;12.15;1.73;;;;;;;-142.75;100.00;76326.22;5030073;28;20483;-68
2022/02/17 11:00:00;;;;;;;11.07;2.00;;;;;;;-142.75;100.00;76357.69;5029714;28;20083;-68